createdAt,value
2018-08-30T00:00:48.259Z,97.71
2018-08-30T00:02:19.631Z,97.33
2018-08-30T00:03:51.204Z,96.61
2018-08-30T00:05:23.318Z,95.07
2018-08-30T00:06:54.649Z,94.88
2018-08-30T00:08:26.461Z,94.78
2018-08-30T00:09:57.492Z,93.44
2018-08-30T00:11:29.606Z,95.07
2018-08-30T00:13:00.739Z,95.45
2018-08-30T00:14:32.208Z,94.30
2018-08-30T00:16:03.780Z,95.36
2018-08-30T00:17:35.352Z,94.88
2018-08-30T00:19:07.175Z,91.42
2018-08-30T00:20:38.496Z,93.15
2018-08-30T00:22:10.070Z,92.76
2018-08-30T00:23:41.944Z,95.55
2018-08-30T00:25:13.313Z,97.52
2018-08-30T00:26:44.784Z,98.63
2018-08-30T00:28:16.897Z,99.99
2018-08-30T00:29:47.933Z,99.99
2018-08-30T00:31:19.600Z,99.99
2018-08-30T00:32:51.613Z,99.99
2018-08-30T00:34:22.645Z,99.99
2018-08-30T00:35:54.216Z,99.99
2018-08-30T00:37:26.138Z,99.99
2018-08-30T00:38:57.360Z,99.99
2018-08-30T00:40:28.931Z,99.20
2018-08-30T00:42:00.503Z,99.99
2018-08-30T00:43:32.175Z,97.76
2018-08-30T00:45:03.648Z,99.87
2018-08-30T00:46:35.218Z,99.99
2018-08-30T00:48:06.790Z,99.99
2018-08-30T00:49:38.462Z,99.99
2018-08-30T00:51:09.933Z,99.99
2018-08-30T00:52:42.249Z,99.99
2018-08-30T00:54:13.075Z,98.72
2018-08-30T00:55:44.998Z,96.99
2018-08-30T00:57:16.221Z,95.84
2018-08-30T00:58:47.790Z,95.26
2018-08-30T01:00:19.361Z,94.35
2018-08-30T01:01:51.033Z,94.26
2018-08-30T01:03:22.511Z,92.81
2018-08-30T01:04:54.080Z,91.99
2018-08-30T01:06:25.647Z,92.09
2018-08-30T01:07:57.219Z,94.35
2018-08-30T01:09:28.790Z,94.06
2018-08-30T01:11:00.362Z,94.26
2018-08-30T01:12:31.933Z,93.10
2018-08-30T01:14:03.705Z,91.75
2018-08-30T01:15:35.076Z,90.36
2018-08-30T01:17:06.647Z,89.98
2018-08-30T01:18:38.239Z,90.17
2018-08-30T01:20:09.891Z,90.84
2018-08-30T01:21:41.666Z,88.92
2018-08-30T01:23:12.933Z,88.34
2018-08-30T01:24:44.507Z,87.76
2018-08-30T01:26:16.177Z,86.32
2018-08-30T01:27:47.648Z,86.42
2018-08-30T01:29:19.220Z,87.86
2018-08-30T01:30:50.791Z,89.50
2018-08-30T01:32:22.663Z,90.51
2018-08-30T01:33:53.938Z,94.01
2018-08-30T01:35:25.506Z,93.63
2018-08-30T01:36:57.078Z,94.31
2018-08-30T01:38:28.950Z,91.08
2018-08-30T01:40:00.223Z,91.37
2018-08-30T01:41:31.799Z,90.89
2018-08-30T01:43:03.372Z,90.89
2018-08-30T01:44:35.037Z,93.73
2018-08-30T01:46:06.510Z,96.94
2018-08-30T01:47:38.081Z,94.11
2018-08-30T01:49:09.652Z,96.32
2018-08-30T01:50:41.475Z,96.94
2018-08-30T01:52:12.794Z,94.59
2018-08-30T01:53:44.367Z,95.21
2018-08-30T01:55:15.937Z,90.99
2018-08-30T01:56:47.612Z,92.14
2018-08-30T01:58:19.080Z,90.70
2018-08-30T01:59:50.651Z,94.11
2018-08-30T02:01:22.223Z,92.77
2018-08-30T02:02:53.895Z,92.86
2018-08-30T02:04:25.386Z,93.25
2018-08-30T02:05:56.937Z,91.61
2018-08-30T02:07:28.509Z,92.67
2018-08-30T02:09:00.482Z,94.16
2018-08-30T02:10:31.653Z,92.77
2018-08-30T02:12:03.224Z,96.94
2018-08-30T02:13:34.795Z,95.31
2018-08-30T02:15:06.467Z,97.33
2018-08-30T02:16:37.939Z,98.72
2018-08-30T02:18:09.512Z,99.68
2018-08-30T02:19:41.081Z,99.99
2018-08-30T02:21:12.655Z,99.53
2018-08-30T02:22:44.223Z,98.53
2018-08-30T02:24:15.796Z,99.77
2018-08-30T02:25:47.366Z,99.91
2018-08-30T02:27:19.189Z,99.99
2018-08-30T02:28:50.509Z,99.99
2018-08-30T02:30:22.096Z,99.05
2018-08-30T02:31:53.652Z,98.53
2018-08-30T02:33:25.325Z,98.57
2018-08-30T02:34:56.795Z,99.24
2018-08-30T02:36:28.365Z,99.99
2018-08-30T02:37:59.937Z,99.99
2018-08-30T02:39:31.809Z,99.99
2018-08-30T02:41:03.079Z,99.99
2018-08-30T02:42:34.649Z,99.99
2018-08-30T02:44:06.233Z,99.99
2018-08-30T02:45:37.992Z,99.99
2018-08-30T02:47:09.363Z,99.99
2018-08-30T02:48:40.934Z,99.99
2018-08-30T02:50:12.516Z,99.99
2018-08-30T02:51:44.180Z,99.99
2018-08-30T02:53:15.647Z,99.99
2018-08-30T02:54:47.221Z,99.99
2018-08-30T02:56:18.789Z,99.99
2018-08-30T02:57:50.659Z,99.99
2018-08-30T02:59:21.959Z,99.99
2018-08-30T03:00:53.501Z,99.99
2018-08-30T03:02:25.071Z,99.99
2018-08-30T03:05:28.463Z,99.99
2018-08-30T03:06:59.784Z,99.99
2018-08-30T03:08:31.355Z,99.99
2018-08-30T03:10:02.924Z,99.99
2018-08-30T03:11:34.840Z,99.99
2018-08-30T03:13:06.065Z,99.99
2018-08-30T03:14:37.639Z,99.99
2018-08-30T03:16:09.208Z,99.99
2018-08-30T03:17:41.385Z,99.99
2018-08-30T03:19:12.348Z,99.99
2018-08-30T03:20:44.470Z,99.99
2018-08-30T03:22:15.488Z,99.99
2018-08-30T03:23:47.761Z,99.99
2018-08-30T03:25:18.629Z,99.99
2018-08-30T03:26:50.236Z,99.99
2018-08-30T03:28:21.810Z,99.99
2018-08-30T03:29:53.439Z,99.99
2018-08-30T03:31:24.946Z,99.99
2018-08-30T03:32:56.495Z,99.99
2018-08-30T03:34:28.050Z,99.99
2018-08-30T03:35:59.721Z,99.99
2018-08-30T03:37:31.196Z,99.63
2018-08-30T03:39:02.792Z,99.99
2018-08-30T03:40:34.332Z,99.99
2018-08-30T03:42:06.053Z,99.99
2018-08-30T03:43:37.473Z,99.99
2018-08-30T03:45:09.044Z,99.99
2018-08-30T03:46:40.613Z,99.99
2018-08-30T03:48:12.285Z,99.99
2018-08-30T03:49:43.754Z,99.99
2018-08-30T03:51:15.325Z,99.68
2018-08-30T03:52:46.897Z,99.99
2018-08-30T03:54:18.466Z,99.99
2018-08-30T03:55:50.036Z,99.99
2018-08-30T03:57:21.606Z,99.39
2018-08-30T04:00:24.898Z,99.99
2018-08-30T04:01:56.318Z,99.99
2018-08-30T04:03:27.892Z,99.99
2018-08-30T04:06:31.130Z,99.99
2018-08-30T04:08:02.600Z,99.99
2018-08-30T04:09:34.171Z,99.99
2018-08-30T04:11:05.741Z,99.99
2018-08-30T04:12:37.415Z,99.49
2018-08-30T04:14:08.882Z,99.58
2018-08-30T04:15:40.655Z,99.78
2018-08-30T04:17:12.023Z,99.99
2018-08-30T04:18:43.845Z,99.99
2018-08-30T04:20:15.164Z,99.78
2018-08-30T04:21:46.735Z,99.58
2018-08-30T04:23:18.306Z,99.99
2018-08-30T04:24:49.876Z,99.99
2018-08-30T04:26:21.447Z,99.99
2018-08-30T04:27:53.018Z,99.99
2018-08-30T04:29:24.589Z,99.99
2018-08-30T04:30:56.159Z,99.99
2018-08-30T04:32:27.730Z,99.99
2018-08-30T04:33:59.300Z,99.99
2018-08-30T04:35:30.875Z,99.99
2018-08-30T04:37:02.592Z,99.99
2018-08-30T04:38:34.015Z,99.99
2018-08-30T04:40:05.585Z,99.99
2018-08-30T04:41:37.154Z,99.99
2018-08-30T04:43:08.725Z,99.99
2018-08-30T04:44:40.296Z,99.99
2018-08-30T04:46:11.866Z,99.99
2018-08-30T04:47:43.437Z,99.99
2018-08-30T04:49:15.110Z,99.99
2018-08-30T04:50:46.579Z,99.99
2018-08-30T04:52:18.154Z,99.99
2018-08-30T04:53:49.719Z,99.99
2018-08-30T04:55:21.440Z,99.99
2018-08-30T04:56:53.165Z,99.99
2018-08-30T04:58:24.431Z,99.99
2018-08-30T04:59:56.002Z,99.99
2018-08-30T05:01:27.775Z,99.99
2018-08-30T05:02:59.144Z,99.99
2018-08-30T05:04:30.714Z,99.99
2018-08-30T05:06:02.285Z,99.99
2018-08-30T05:07:33.956Z,99.99
2018-08-30T05:09:05.427Z,99.99
2018-08-30T05:10:36.997Z,99.99
2018-08-30T05:12:08.567Z,99.99
2018-08-30T05:13:40.540Z,99.99
2018-08-30T05:15:11.708Z,99.99
2018-08-30T05:16:43.282Z,99.99
2018-08-30T05:18:14.849Z,99.99
2018-08-30T05:19:46.523Z,99.99
2018-08-30T05:21:17.990Z,99.99
2018-08-30T05:22:49.561Z,99.99
2018-08-30T05:24:21.132Z,99.99
2018-08-30T05:25:52.702Z,99.99
2018-08-30T05:27:24.274Z,99.99
2018-08-30T05:28:55.843Z,99.99
2018-08-30T05:30:27.414Z,99.99
2018-08-30T05:31:59.084Z,99.99
2018-08-30T05:33:30.558Z,99.99
2018-08-30T05:35:02.126Z,99.99
2018-08-30T05:36:33.696Z,99.99
2018-08-30T05:38:05.367Z,99.99
2018-08-30T05:39:36.836Z,99.99
2018-08-30T05:41:08.407Z,99.99
2018-08-30T05:42:39.977Z,99.99
2018-08-30T05:44:11.547Z,99.99
2018-08-30T05:45:43.118Z,99.99
2018-08-30T05:47:14.688Z,99.99
2018-08-30T05:48:46.259Z,99.99
2018-08-30T05:50:17.979Z,99.99
2018-08-30T05:51:49.399Z,99.99
2018-08-30T05:53:20.970Z,99.99
2018-08-30T05:54:52.544Z,99.99
2018-08-30T05:56:24.117Z,99.99
2018-08-30T05:57:55.680Z,99.99
2018-08-30T05:59:27.251Z,99.99
2018-08-30T06:00:58.821Z,99.99
2018-08-30T06:02:30.420Z,99.99
2018-08-30T06:04:01.961Z,99.99
2018-08-30T06:05:33.537Z,99.99
2018-08-30T06:07:05.103Z,99.99
2018-08-30T06:08:36.924Z,99.99
2018-08-30T06:10:08.243Z,99.99
2018-08-30T06:11:39.813Z,99.99
2018-08-30T06:13:11.424Z,99.99
2018-08-30T06:14:43.254Z,99.99
2018-08-30T06:16:14.527Z,99.99
2018-08-30T06:17:46.094Z,99.99
2018-08-30T06:19:17.664Z,99.99
2018-08-30T06:20:49.334Z,99.99
2018-08-30T06:22:20.805Z,99.99
2018-08-30T06:23:52.374Z,99.99
2018-08-30T06:25:23.945Z,99.99
2018-08-30T06:26:55.727Z,99.99
2018-08-30T06:28:27.085Z,99.99
2018-08-30T06:29:58.654Z,99.99
2018-08-30T06:31:30.226Z,99.99
2018-08-30T06:33:02.336Z,99.99
2018-08-30T06:34:33.369Z,99.99
2018-08-30T06:36:04.935Z,99.99
2018-08-30T06:37:36.505Z,99.99
2018-08-30T06:39:08.176Z,99.99
2018-08-30T06:40:39.645Z,99.99
2018-08-30T06:42:11.217Z,99.99
2018-08-30T06:43:42.785Z,99.99
2018-08-30T06:45:14.756Z,99.99
2018-08-30T06:46:45.925Z,99.99
2018-08-30T06:48:17.500Z,99.99
2018-08-30T06:49:49.065Z,99.99
2018-08-30T06:51:20.735Z,99.99
2018-08-30T06:52:52.221Z,99.99
2018-08-30T06:54:23.775Z,99.99
2018-08-30T06:55:55.345Z,99.99
2018-08-30T06:57:26.915Z,99.99
2018-08-30T06:58:58.485Z,99.99
2018-08-30T07:00:30.055Z,99.99
2018-08-30T07:02:01.624Z,99.99
2018-08-30T07:03:33.348Z,99.99
2018-08-30T07:05:04.764Z,99.99
2018-08-30T07:06:36.334Z,99.99
2018-08-30T07:08:07.954Z,99.99
2018-08-30T07:09:39.579Z,99.99
2018-08-30T07:11:11.044Z,99.99
2018-08-30T07:12:42.613Z,99.99
2018-08-30T07:14:14.183Z,99.99
2018-08-30T07:15:46.055Z,99.99
2018-08-30T07:17:17.323Z,99.99
2018-08-30T07:18:48.893Z,99.99
2018-08-30T07:20:20.463Z,99.99
2018-08-30T07:21:52.232Z,99.99
2018-08-30T07:23:23.602Z,99.99
2018-08-30T07:24:55.176Z,99.99
2018-08-30T07:26:26.742Z,99.99
2018-08-30T07:27:58.412Z,99.99
2018-08-30T07:29:29.882Z,99.99
2018-08-30T07:31:01.452Z,99.99
2018-08-30T07:32:33.022Z,99.99
2018-08-30T07:34:04.673Z,99.99
2018-08-30T07:35:36.162Z,99.99
2018-08-30T07:37:07.733Z,99.99
2018-08-30T07:38:39.301Z,99.99
2018-08-30T07:40:11.075Z,99.99
2018-08-30T07:41:42.441Z,99.99
2018-08-30T07:43:14.011Z,99.99
2018-08-30T07:44:45.581Z,99.99
2018-08-30T07:46:17.451Z,99.99
2018-08-30T07:47:48.720Z,99.99
2018-08-30T07:49:20.293Z,99.99
2018-08-30T07:52:23.534Z,99.99
2018-08-30T07:53:55.001Z,99.99
2018-08-30T07:55:26.569Z,99.99
2018-08-30T07:56:58.139Z,99.99
2018-08-30T07:58:29.809Z,99.99
2018-08-30T08:00:01.401Z,99.99
2018-08-30T08:01:32.848Z,99.99
2018-08-30T08:03:04.417Z,99.99
2018-08-30T08:04:35.987Z,99.99
2018-08-30T08:06:07.597Z,99.99
2018-08-30T08:07:39.127Z,99.99
2018-08-30T08:09:10.696Z,99.99
2018-08-30T08:10:42.367Z,99.99
2018-08-30T08:12:13.835Z,99.99
2018-08-30T08:13:45.405Z,99.99
2018-08-30T08:15:16.975Z,99.99
2018-08-30T08:16:48.948Z,99.99
2018-08-30T08:18:20.114Z,99.99
2018-08-30T08:19:51.684Z,99.99
2018-08-30T08:21:23.253Z,99.99
2018-08-30T08:22:54.924Z,99.99
2018-08-30T08:24:26.878Z,99.99
2018-08-30T08:29:02.284Z,99.99
2018-08-30T08:30:32.675Z,99.99
2018-08-30T08:32:04.729Z,99.99
2018-08-30T08:33:36.297Z,99.99
2018-08-30T08:35:08.060Z,99.99
2018-08-30T08:36:39.552Z,99.99
2018-08-30T08:38:11.357Z,99.99
2018-08-30T08:41:14.855Z,99.99
2018-08-30T08:42:45.827Z,99.99
2018-08-30T08:44:17.000Z,99.99
2018-08-30T08:45:48.861Z,99.99
2018-08-30T08:47:20.647Z,99.99
2018-08-30T08:50:26.598Z,99.99
2018-08-30T08:51:55.800Z,99.99
2018-08-30T08:53:27.242Z,99.99
2018-08-30T08:54:58.435Z,99.99
2018-08-30T08:56:30.212Z,99.99
2018-08-30T08:58:01.430Z,99.99
2018-08-30T08:59:32.973Z,99.99
2018-08-30T09:01:05.068Z,99.99
2018-08-30T09:02:36.919Z,99.99
2018-08-30T09:04:08.024Z,99.99
2018-08-30T09:05:39.577Z,99.99
2018-08-30T09:07:11.621Z,99.99
2018-08-30T09:08:42.724Z,99.99
2018-08-30T09:10:13.946Z,99.99
2018-08-30T09:11:45.968Z,99.99
2018-08-30T09:13:17.379Z,99.99
2018-08-30T09:14:48.190Z,99.99
2018-08-30T09:16:19.759Z,99.99
2018-08-30T09:17:51.637Z,99.99
2018-08-30T09:19:22.897Z,99.99
2018-08-30T09:22:26.037Z,99.99
2018-08-30T09:23:57.709Z,99.99
2018-08-30T09:25:29.175Z,99.99
2018-08-30T09:27:00.778Z,99.99
2018-08-30T09:28:32.313Z,99.99
2018-08-30T09:30:03.983Z,99.99
2018-08-30T09:31:35.453Z,99.99
2018-08-30T09:33:07.026Z,99.99
2018-08-30T09:34:38.591Z,99.99
2018-08-30T09:36:10.161Z,99.99
2018-08-30T09:37:41.731Z,99.99
2018-08-30T09:39:13.746Z,99.99
2018-08-30T09:40:45.827Z,99.99
2018-08-30T09:42:16.562Z,99.99
2018-08-30T09:43:48.046Z,99.99
2018-08-30T09:45:19.582Z,99.99
2018-08-30T09:46:51.659Z,99.99
2018-08-30T09:48:22.973Z,99.99
2018-08-30T09:52:57.846Z,99.99
2018-08-30T09:54:30.283Z,99.99
2018-08-30T09:57:33.102Z,99.99
2018-08-30T10:00:37.232Z,99.99
2018-08-30T10:02:06.866Z,99.99
2018-08-30T10:03:39.246Z,99.99
2018-08-30T10:06:42.290Z,99.99
2018-08-30T10:08:13.155Z,99.99
2018-08-30T10:09:45.999Z,99.99
2018-08-30T10:11:17.320Z,99.99
2018-08-30T10:12:48.711Z,99.99
2018-08-30T10:15:51.397Z,99.99
2018-08-30T10:17:22.592Z,99.99
2018-08-30T10:18:55.375Z,99.99
2018-08-30T10:20:26.044Z,99.99
2018-08-30T10:21:57.365Z,99.99
2018-08-30T10:23:29.118Z,99.99
2018-08-30T10:25:00.917Z,99.99
2018-08-30T10:28:04.197Z,99.99
2018-08-30T10:29:35.690Z,99.99
2018-08-30T10:31:07.192Z,99.99
2018-08-30T10:32:38.360Z,99.99
2018-08-30T10:34:09.907Z,99.99
2018-08-30T10:35:42.087Z,99.99
2018-08-30T10:37:13.952Z,99.99
2018-08-30T10:38:45.327Z,99.99
2018-08-30T10:40:16.208Z,99.99
2018-08-30T10:41:48.416Z,98.44
2018-08-30T10:43:20.063Z,98.24
2018-08-30T10:44:52.167Z,98.14
2018-08-30T10:46:23.316Z,98.14
2018-08-30T10:47:54.575Z,97.47
2018-08-30T10:49:26.507Z,97.62
2018-08-30T10:50:58.769Z,98.87
2018-08-30T10:52:29.641Z,99.21
2018-08-30T10:54:01.245Z,98.14
2018-08-30T10:55:33.376Z,98.05
2018-08-30T10:57:05.114Z,99.01
2018-08-30T10:58:37.286Z,98.10
2018-08-30T11:00:06.949Z,96.56
2018-08-30T11:01:39.744Z,97.47
2018-08-30T11:03:11.974Z,96.32
2018-08-30T11:04:42.766Z,95.64
2018-08-30T11:06:13.300Z,95.64
2018-08-30T11:07:47.283Z,96.42
2018-08-30T11:10:48.601Z,96.08
2018-08-30T11:12:21.575Z,97.14
2018-08-30T11:13:52.606Z,95.84
2018-08-30T11:15:24.618Z,94.63
2018-08-30T11:18:25.980Z,93.57
2018-08-30T11:19:58.091Z,93.57
2018-08-30T11:21:30.253Z,93.81
2018-08-30T11:23:01.760Z,94.20
2018-08-30T11:24:32.821Z,93.28
2018-08-30T11:26:04.949Z,94.29
2018-08-30T11:27:36.071Z,94.68
2018-08-30T11:29:07.232Z,93.43
2018-08-30T11:30:39.198Z,90.87
2018-08-30T11:32:11.131Z,93.91
2018-08-30T11:33:43.229Z,94.64
2018-08-30T11:35:13.863Z,93.57
2018-08-30T11:36:44.770Z,90.96
2018-08-30T11:38:17.687Z,89.71
2018-08-30T11:39:47.927Z,89.37
2018-08-30T11:41:19.582Z,89.57
2018-08-30T11:42:50.950Z,89.61
2018-08-30T11:44:22.869Z,88.59
2018-08-30T11:45:54.039Z,91.74
2018-08-30T11:47:25.941Z,93.43
2018-08-30T11:48:57.633Z,90.67
2018-08-30T11:50:32.009Z,89.23
2018-08-30T11:52:00.362Z,89.71
2018-08-30T11:53:33.266Z,88.06
2018-08-30T11:55:04.180Z,87.20
2018-08-30T11:56:36.054Z,87.92
2018-08-30T11:58:07.914Z,88.07
2018-08-30T11:59:40.429Z,88.45
2018-08-30T12:01:10.451Z,87.97
2018-08-30T12:02:42.911Z,87.97
2018-08-30T12:04:14.099Z,87.68
2018-08-30T12:05:45.285Z,88.55
2018-08-30T12:07:19.251Z,88.51
2018-08-30T12:08:48.988Z,89.23
2018-08-30T12:11:54.761Z,86.86
2018-08-30T12:14:55.647Z,81.38
2018-08-30T12:16:27.795Z,82.60
2018-08-30T12:17:58.215Z,84.14
2018-08-30T12:19:29.531Z,83.22
2018-08-30T12:21:02.241Z,82.87
2018-08-30T12:22:34.540Z,83.04
2018-08-30T12:24:05.436Z,84.24
2018-08-30T12:25:37.433Z,83.66
2018-08-30T12:27:08.549Z,83.62
2018-08-30T12:28:42.136Z,84.83
2018-08-30T12:30:13.265Z,84.97
2018-08-30T12:33:17.494Z,83.47
2018-08-30T12:34:45.756Z,81.19
2018-08-30T12:36:18.235Z,80.69
2018-08-30T12:39:24.115Z,77.24
2018-08-30T12:40:52.409Z,77.37
2018-08-30T12:43:55.802Z,76.89
2018-08-30T12:45:27.408Z,74.51
2018-08-30T12:47:00.167Z,74.18
2018-08-30T12:48:31.144Z,75.87
2018-08-30T12:50:01.953Z,74.18
2018-08-30T12:51:33.566Z,76.41
2018-08-30T12:54:37.592Z,76.59
2018-08-30T12:56:09.511Z,79.64
2018-08-30T12:57:40.251Z,78.81
2018-08-30T12:59:11.842Z,76.89
2018-08-30T13:00:47.421Z,74.47
2018-08-30T13:02:14.593Z,74.38
2018-08-30T13:05:17.480Z,75.75
2018-08-30T13:12:58.257Z,71.25
2018-08-30T13:14:26.645Z,69.70
2018-08-30T13:15:58.744Z,71.18
2018-08-30T13:17:30.453Z,71.62
2018-08-30T13:19:01.650Z,71.60
2018-08-30T13:20:34.243Z,72.50
2018-08-30T13:22:04.391Z,71.60
2018-08-30T13:23:36.911Z,69.12
2018-08-30T13:25:10.955Z,70.79
2018-08-30T13:26:40.481Z,70.54
2018-08-30T13:29:47.683Z,67.40
2018-08-30T13:31:15.688Z,65.95
2018-08-30T13:32:46.302Z,66.14
2018-08-30T13:34:18.392Z,65.75
2018-08-30T13:37:20.514Z,65.66
2018-08-30T13:45:01.541Z,64.78
2018-08-30T13:46:31.468Z,65.11
2018-08-30T13:48:01.955Z,62.84
2018-08-30T13:51:05.141Z,66.69
2018-08-30T13:52:37.080Z,65.33
2018-08-30T13:54:07.936Z,64.33
2018-08-30T13:55:40.085Z,63.39
2018-08-30T13:58:43.904Z,64.50
2018-08-30T14:03:17.337Z,63.55
2018-08-30T14:04:50.532Z,59.86
2018-08-30T14:06:20.662Z,59.76
2018-08-30T14:07:52.155Z,60.74
2018-08-30T14:09:25.015Z,60.71
2018-08-30T14:10:55.708Z,60.80
2018-08-30T14:12:27.044Z,61.25
2018-08-30T14:13:58.903Z,58.72
2018-08-30T14:15:31.246Z,58.11
2018-08-30T14:17:01.499Z,57.07
2018-08-30T14:18:33.159Z,57.23
2018-08-30T14:20:04.975Z,57.98
2018-08-30T14:21:36.822Z,59.05
2018-08-30T14:23:07.409Z,59.18
2018-08-30T14:24:39.367Z,57.92
2018-08-30T14:26:10.875Z,58.04
2018-08-30T14:27:42.378Z,56.77
2018-08-30T14:30:45.201Z,55.74
2018-08-30T14:33:49.117Z,53.79
2018-08-30T14:35:20.236Z,55.90
2018-08-30T14:36:52.232Z,56.07
2018-08-30T14:38:23.852Z,55.90
2018-08-30T14:41:27.071Z,55.66
2018-08-30T14:42:58.053Z,53.94
2018-08-30T14:44:29.733Z,54.65
2018-08-30T14:46:01.041Z,52.60
2018-08-30T14:47:33.018Z,53.70
2018-08-30T14:49:04.157Z,51.82
2018-08-30T14:50:36.535Z,53.89
2018-08-30T14:52:07.379Z,55.11
2018-08-30T14:53:39.103Z,54.85
2018-08-30T14:55:10.914Z,54.50
2018-08-30T14:56:43.428Z,54.99
2018-08-30T14:58:13.710Z,54.43
2018-08-30T14:59:47.227Z,51.34
2018-08-30T15:01:18.296Z,50.53
2018-08-30T15:02:48.722Z,49.44
2018-08-30T15:04:19.999Z,49.12
2018-08-30T15:05:51.748Z,49.27
2018-08-30T15:07:23.106Z,47.32
2018-08-30T15:08:55.114Z,46.13
2018-08-30T15:10:26.316Z,44.69
2018-08-30T15:11:57.959Z,47.54
2018-08-30T15:13:29.634Z,49.46
2018-08-30T15:15:02.085Z,47.96
2018-08-30T15:16:33.413Z,46.47
2018-08-30T15:18:05.147Z,45.05
2018-08-30T15:19:36.379Z,45.95
2018-08-30T15:21:07.883Z,46.54
2018-08-30T15:22:39.808Z,45.29
2018-08-30T15:24:11.324Z,45.49
2018-08-30T15:25:42.791Z,46.69
2018-08-30T15:27:14.439Z,46.15
2018-08-30T15:31:55.999Z,45.26
2018-08-30T15:36:37.175Z,44.85
2018-08-30T15:37:55.632Z,44.27
2018-08-30T15:39:27.237Z,43.68
2018-08-30T15:40:58.707Z,43.66
2018-08-30T15:42:30.187Z,43.59
2018-08-30T15:44:01.190Z,43.00
2018-08-30T15:45:32.777Z,44.45
2018-08-30T15:47:04.440Z,46.50
2018-08-30T15:48:36.139Z,45.78
2018-08-30T15:50:07.537Z,43.22
2018-08-30T15:51:39.378Z,42.14
2018-08-30T15:53:10.728Z,43.47
2018-08-30T15:54:42.513Z,43.98
2018-08-30T15:56:13.827Z,44.42
2018-08-30T15:57:45.413Z,44.15
2018-08-30T15:59:17.598Z,43.47
2018-08-30T16:02:20.471Z,42.08
2018-08-30T16:05:23.404Z,41.91
2018-08-30T16:06:54.938Z,41.81
2018-08-30T16:09:58.709Z,40.33
2018-08-30T16:11:30.197Z,40.29
2018-08-30T16:13:01.345Z,41.81
2018-08-30T16:14:33.066Z,41.63
2018-08-30T16:16:04.453Z,41.81
2018-08-30T16:17:36.239Z,40.70
2018-08-30T16:25:13.974Z,40.58
2018-08-30T16:26:45.570Z,40.56
2018-08-30T16:28:17.251Z,39.61
2018-08-30T16:29:49.387Z,40.31
2018-08-30T16:31:20.620Z,39.55
2018-08-30T16:32:52.114Z,40.39
2018-08-30T16:34:24.005Z,41.11
2018-08-30T16:35:55.389Z,40.25
2018-08-30T16:37:27.227Z,39.37
2018-08-30T16:38:58.261Z,40.64
2018-08-30T16:40:30.150Z,40.21
2018-08-30T16:42:01.639Z,39.62
2018-08-30T16:43:33.331Z,40.19
2018-08-30T16:45:04.616Z,41.11
2018-08-30T16:48:07.908Z,40.97
2018-08-30T16:51:10.962Z,41.05
2018-08-30T16:52:42.751Z,40.58
2018-08-30T16:55:45.973Z,40.99
2018-08-30T16:57:17.309Z,39.72
2018-08-30T16:58:49.125Z,39.41
2018-08-30T17:00:20.685Z,39.02
2018-08-30T17:01:52.170Z,37.63
2018-08-30T17:03:23.960Z,38.77
2018-08-30T17:04:55.851Z,40.50
2018-08-30T17:06:26.884Z,40.47
2018-08-30T17:09:30.616Z,38.96
2018-08-30T17:11:01.591Z,38.49
2018-08-30T17:12:33.483Z,38.98
2018-08-30T17:14:04.765Z,38.82
2018-08-30T17:15:36.553Z,40.27
2018-08-30T17:17:07.958Z,39.06
2018-08-30T17:20:11.113Z,39.90
2018-08-30T17:24:46.225Z,39.61
2018-08-30T17:26:18.017Z,37.24
2018-08-30T17:27:50.195Z,37.22
2018-08-30T17:29:20.646Z,38.57
2018-08-30T17:30:52.681Z,38.92
2018-08-30T17:32:24.155Z,39.04
2018-08-30T17:33:55.401Z,38.42
2018-08-30T17:35:27.089Z,37.52
2018-08-30T17:36:59.312Z,37.91
2018-08-30T17:38:30.384Z,38.06
2018-08-30T17:40:03.447Z,39.14
2018-08-30T17:41:34.167Z,37.91
2018-08-30T17:43:05.298Z,37.54
2018-08-30T17:44:36.549Z,38.90
2018-08-30T17:46:08.381Z,39.67
2018-08-30T17:47:39.662Z,39.65
2018-08-30T17:49:11.348Z,40.72
2018-08-30T17:50:42.873Z,38.73
2018-08-30T17:52:14.709Z,38.53
2018-08-30T17:55:17.998Z,37.65
2018-08-30T17:56:49.526Z,37.70
2018-08-30T17:58:21.130Z,35.81
2018-08-30T17:59:52.341Z,34.38
2018-08-30T18:01:24.372Z,35.07
2018-08-30T18:02:55.714Z,36.72
2018-08-30T18:04:27.400Z,36.54
2018-08-30T18:05:58.723Z,35.40
2018-08-30T18:09:02.594Z,36.33
2018-08-30T18:10:33.740Z,37.04
2018-08-30T18:12:05.023Z,36.36
2018-08-30T18:13:37.027Z,36.15
2018-08-30T18:15:08.294Z,35.56
2018-08-30T18:23:33.651Z,35.38
2018-08-30T18:25:04.927Z,35.85
2018-08-30T18:26:36.800Z,35.03
2018-08-30T18:28:08.425Z,34.16
2018-08-30T18:29:39.886Z,34.64
2018-08-30T18:31:11.571Z,34.68
2018-08-30T18:32:42.855Z,38.10
2018-08-30T18:34:14.445Z,38.87
2018-08-30T18:35:46.101Z,37.93
2018-08-30T18:38:49.609Z,37.57
2018-08-30T18:40:20.882Z,35.87
2018-08-30T18:41:52.911Z,34.26
2018-08-30T18:43:23.957Z,33.79
2018-08-30T18:44:55.777Z,33.84
2018-08-30T18:46:27.113Z,33.38
2018-08-30T18:47:59.103Z,33.56
2018-08-30T18:49:30.333Z,33.65
2018-08-30T18:51:03.087Z,33.84
2018-08-30T18:52:33.503Z,33.59
2018-08-30T18:54:05.587Z,33.58
2018-08-30T18:55:36.681Z,34.36
2018-08-30T18:57:08.307Z,34.91
2018-08-30T18:58:39.785Z,36.44
2018-08-30T19:01:43.016Z,37.23
2018-08-30T19:03:14.806Z,39.14
2018-08-30T19:04:46.122Z,39.80
2018-08-30T19:06:17.908Z,40.50
2018-08-30T19:09:22.022Z,37.27
2018-08-30T19:10:52.456Z,36.82
2018-08-30T19:12:24.880Z,35.72
2018-08-30T19:13:55.907Z,35.95
2018-08-30T19:15:27.306Z,35.95
2018-08-30T19:16:58.787Z,36.33
2018-08-30T19:18:30.369Z,35.36
2018-08-30T19:20:01.953Z,36.23
2018-08-30T19:23:05.570Z,36.21
2018-08-30T19:27:40.005Z,36.13
2018-08-30T19:29:11.549Z,37.21
2018-08-30T19:30:43.031Z,37.62
2018-08-30T19:33:47.142Z,36.33
2018-08-30T19:35:17.878Z,36.83
2018-08-30T19:38:22.098Z,37.07
2018-08-30T19:39:56.577Z,37.95
2018-08-30T19:41:24.663Z,36.90
2018-08-30T19:44:27.278Z,36.66
2018-08-30T19:45:58.854Z,36.68
2018-08-30T19:47:30.538Z,36.31
2018-08-30T19:49:02.220Z,36.29
2018-08-30T19:50:33.600Z,36.99
2018-08-30T19:52:05.182Z,37.25
2018-08-30T19:53:36.863Z,37.63
2018-08-30T19:55:08.344Z,37.29
2018-08-30T19:56:39.932Z,37.67
2018-08-30T19:58:11.507Z,37.83
2018-08-30T19:59:43.240Z,37.54
2018-08-30T20:01:14.671Z,38.61
2018-08-30T20:02:46.795Z,37.54
2018-08-30T20:04:17.834Z,37.07
2018-08-30T20:05:49.517Z,36.99
2018-08-30T20:07:20.995Z,37.46
2018-08-30T20:08:52.583Z,37.37
2018-08-30T20:10:24.376Z,38.63
2018-08-30T20:11:55.845Z,38.63
2018-08-30T20:13:27.323Z,39.31
2018-08-30T20:16:30.482Z,41.03
2018-08-30T20:18:02.263Z,40.35
2018-08-30T20:19:34.288Z,40.55
2018-08-30T20:21:05.808Z,41.11
2018-08-30T20:22:36.898Z,41.20
2018-08-30T20:24:08.689Z,41.28
2018-08-30T20:27:11.547Z,40.56
2018-08-30T20:28:43.329Z,40.00
2018-08-30T20:30:14.813Z,40.41
2018-08-30T20:31:46.287Z,40.97
2018-08-30T20:33:17.868Z,41.34
2018-08-30T20:34:49.446Z,42.76
2018-08-30T20:36:21.270Z,44.19
2018-08-30T20:37:52.809Z,45.34
2018-08-30T20:39:24.198Z,46.31
2018-08-30T20:40:56.308Z,46.69
2018-08-30T20:42:27.445Z,46.96
2018-08-30T20:43:58.926Z,47.06
2018-08-30T20:45:30.505Z,49.29
2018-08-30T20:47:02.100Z,49.17
2018-08-30T20:48:33.667Z,49.27
2018-08-30T20:50:05.240Z,49.34
2018-08-30T20:51:37.123Z,48.49
2018-08-30T20:53:08.399Z,49.37
2018-08-30T20:54:40.178Z,51.37
2018-08-30T20:56:11.555Z,52.15
2018-08-30T20:57:43.133Z,53.67
2018-08-30T20:59:14.727Z,52.80
2018-08-30T21:00:46.391Z,55.32
2018-08-30T21:02:17.868Z,53.85
2018-08-30T21:03:49.447Z,55.68
2018-08-30T21:05:21.033Z,56.46
2018-08-30T21:06:53.031Z,59.14
2018-08-30T21:08:24.181Z,59.40
2018-08-30T21:11:27.337Z,62.56
2018-08-30T21:12:59.115Z,59.95
2018-08-30T21:14:30.492Z,62.95
2018-08-30T21:16:02.070Z,66.50
2018-08-30T21:17:33.703Z,63.02
2018-08-30T21:19:05.679Z,63.69
2018-08-30T21:20:36.802Z,65.11
2018-08-30T21:22:08.379Z,64.05
2018-08-30T21:23:40.261Z,64.14
2018-08-30T21:25:11.633Z,66.43
2018-08-30T21:26:43.111Z,65.11
2018-08-30T21:28:14.693Z,69.71
2018-08-30T21:29:46.277Z,68.65
2018-08-30T21:31:18.042Z,68.13
2018-08-30T21:32:49.419Z,72.00
2018-08-30T21:34:21.000Z,73.50
2018-08-30T21:35:52.578Z,74.85
2018-08-30T21:37:24.248Z,73.99
2018-08-30T21:38:55.799Z,74.95